Time;durP1;ratioP1;P1;durP2;ratioP2;P2;SDS_P1;SDS_P2;PMS_P1;PMS_P2;Temp;Humidity;BMP_temperature;BMP_pressure;BME280_temperature;BME280_humidity;BME280_pressure;Samples;Min_cycle;Max_cycle;Signal;HPM_P1;HPM_P2
2023/09/22 00:02:13;;;;;;;1999.90;999.90;;;;;;;19.39;100.00;94189.28;5063735;28;20166;-50
2023/09/22 00:04:39;;;;;;;1999.90;999.90;;;;;;;19.34;100.00;94195.56;5063594;28;20248;-53
2023/09/22 00:07:06;;;;;;;1999.90;999.90;;;;;;;19.31;100.00;94188.97;5063442;28;20189;-50
2023/09/22 00:09:32;;;;;;;1999.90;999.90;;;;;;;19.32;100.00;94186.97;5063988;28;20161;-52
2023/09/22 00:11:59;;;;;;;1999.90;999.90;;;;;;;19.12;100.00;94186.97;5064033;28;20184;-51
2023/09/22 00:14:25;;;;;;;1999.90;999.90;;;;;;;19.05;100.00;94188.16;5063935;28;20169;-50
2023/09/22 00:16:50;;;;;;;1999.90;999.90;;;;;;;19.03;100.00;94189.91;5063980;28;20158;-47
2023/09/22 00:19:15;;;;;;;1999.90;999.90;;;;;;;18.97;100.00;94186.31;5063971;28;20169;-48
2023/09/22 00:21:41;;;;;;;1999.90;999.90;;;;;;;18.94;100.00;94190.06;5063530;28;20154;-48
2023/09/22 00:24:07;;;;;;;1999.90;999.90;;;;;;;18.86;100.00;94186.19;5063679;28;20181;-49
2023/09/22 00:26:32;;;;;;;1999.90;999.90;;;;;;;18.76;100.00;94187.59;5063237;28;20241;-49
2023/09/22 00:28:58;;;;;;;1999.90;999.90;;;;;;;18.68;100.00;94180.94;5063395;28;20169;-51
2023/09/22 00:31:23;;;;;;;1999.90;999.90;;;;;;;18.52;100.00;94178.72;5063772;28;20182;-47
2023/09/22 00:33:49;;;;;;;1999.90;999.90;;;;;;;18.54;100.00;94179.03;5063334;28;20174;-51
2023/09/22 00:36:15;;;;;;;1999.90;999.90;;;;;;;18.49;100.00;94174.94;5063210;28;20169;-50
2023/09/22 00:38:41;;;;;;;1999.90;999.90;;;;;;;18.39;100.00;94170.03;5063273;28;20174;-47
2023/09/22 00:41:06;;;;;;;1999.90;999.90;;;;;;;18.34;100.00;94178.97;5063679;28;20194;-48
2023/09/22 00:43:32;;;;;;;1999.90;999.90;;;;;;;18.24;100.00;94175.56;5063277;28;20166;-50
2023/09/22 00:45:58;;;;;;;1999.90;999.90;;;;;;;18.26;100.00;94184.16;5063664;28;20170;-51
2023/09/22 00:48:31;;;;;;;1999.90;999.90;;;;;;;18.29;100.00;94187.97;5063161;28;20257;-53
2023/09/22 00:50:57;;;;;;;1999.90;999.90;;;;;;;18.32;100.00;94187.75;5065997;28;20208;-52
2023/09/22 00:53:29;;;;;;;1999.90;999.90;;;;;;;18.27;100.00;94180.16;5067394;28;20166;-54
2023/09/22 00:55:55;;;;;;;1999.90;999.90;;;;;;;18.32;100.00;94173.19;5066700;28;20180;-53
2023/09/22 00:58:21;;;;;;;1999.90;999.90;;;;;;;18.29;100.00;94169.34;5066838;28;20198;-50
2023/09/22 01:00:47;;;;;;;1999.90;999.90;;;;;;;18.25;100.00;94171.56;5067279;28;20253;-49
2023/09/22 01:03:14;;;;;;;1999.90;999.90;;;;;;;18.24;100.00;94166.50;5067017;28;20177;-52
2023/09/22 01:05:39;;;;;;;1999.90;999.90;;;;;;;18.27;100.00;94173.84;5066443;28;20225;-52
2023/09/22 01:08:05;;;;;;;1999.90;999.90;;;;;;;18.27;100.00;94179.38;5066485;28;20261;-48
2023/09/22 01:10:42;;;;;;;1999.90;999.90;;;;;;;18.19;100.00;94189.31;5066971;28;20177;-50
2023/09/22 01:13:09;;;;;;;1999.90;999.90;;;;;;;18.12;100.00;94196.00;5067328;28;20162;-52
2023/09/22 01:15:36;;;;;;;1999.90;999.90;;;;;;;18.08;100.00;94191.91;5067179;28;20166;-47
2023/09/22 01:18:04;;;;;;;1999.90;999.90;;;;;;;18.01;100.00;94184.81;5066380;28;20170;-48
2023/09/22 01:20:29;;;;;;;1999.90;999.90;;;;;;;18.01;100.00;94176.50;5066921;28;20219;-47
2023/09/22 01:22:54;;;;;;;1999.90;999.90;;;;;;;18.03;100.00;94181.56;5066349;28;20166;-46
2023/09/22 01:25:20;;;;;;;1999.90;999.90;;;;;;;18.01;100.00;94176.50;5066276;28;20173;-48
2023/09/22 01:27:48;;;;;;;1999.90;999.90;;;;;;;17.95;100.00;94180.44;5066175;28;20219;-49
2023/09/22 01:30:15;;;;;;;1999.90;999.90;;;;;;;17.94;100.00;94182.44;5066142;28;20198;-51
2023/09/22 01:32:41;;;;;;;1999.90;999.90;;;;;;;17.93;100.00;94182.91;5066223;28;20177;-49
2023/09/22 01:35:09;;;;;;;1999.90;999.90;;;;;;;17.95;100.00;94180.44;5065996;28;20174;-50
2023/09/22 01:37:55;;;;;;;1999.90;999.90;;;;;;;17.84;100.00;94169.19;5066834;28;20174;-50
2023/09/22 01:40:21;;;;;;;1999.90;999.90;;;;;;;17.89;100.00;94161.00;5065995;28;20170;-47
2023/09/22 01:42:46;;;;;;;1999.90;999.90;;;;;;;17.94;100.00;94159.56;5065958;28;20204;-49
2023/09/22 01:45:12;;;;;;;1999.90;999.90;;;;;;;17.88;100.00;94165.00;5066126;28;20197;-48
2023/09/22 01:47:40;;;;;;;1999.90;999.90;;;;;;;17.89;100.00;94160.25;5065826;28;20201;-49
2023/09/22 01:50:07;;;;;;;1999.90;999.90;;;;;;;17.80;100.00;94176.91;5066279;28;20205;-49
2023/09/22 01:52:32;;;;;;;1999.90;999.90;;;;;;;17.69;100.00;94179.50;5049874;28;20174;-48
2023/09/22 01:54:57;;;;;;;1999.90;999.90;;;;;;;17.70;100.00;94178.28;5065688;28;20176;-47
2023/09/22 01:57:23;;;;;;;1999.90;999.90;;;;;;;17.67;100.00;94170.97;5065633;28;20190;-52
2023/09/22 01:59:51;;;;;;;1999.90;999.90;;;;;;;17.71;100.00;94160.47;5065612;28;20170;-52
2023/09/22 02:02:16;;;;;;;1999.90;999.90;;;;;;;17.75;100.00;94150.00;5064851;28;20166;-52
2023/09/22 02:04:42;;;;;;;1999.90;999.90;;;;;;;17.77;100.00;94148.25;5065379;28;20221;-49
2023/09/22 02:07:07;;;;;;;1999.90;999.90;;;;;;;17.83;100.00;94145.59;5065436;28;20185;-47
2023/09/22 02:09:33;;;;;;;1999.90;999.90;;;;;;;17.78;100.00;94155.31;5065902;28;20169;-50
2023/09/22 02:11:59;;;;;;;1999.90;999.90;;;;;;;17.71;100.00;94160.47;5065385;28;20169;-52
2023/09/22 02:14:24;;;;;;;1999.90;999.90;;;;;;;17.68;100.00;94155.91;5066133;28;20173;-51
2023/09/22 02:16:50;;;;;;;1999.90;999.90;;;;;;;17.63;100.00;94175.94;5065285;28;20192;-52
2023/09/22 02:19:15;;;;;;;1999.90;999.90;;;;;;;17.57;100.00;94175.06;5065266;28;20177;-53
2023/09/22 02:21:41;;;;;;;1999.90;999.90;;;;;;;17.47;100.00;94173.63;5065704;28;20245;-50
2023/09/22 02:24:06;;;;;;;1999.90;999.90;;;;;;;17.53;100.00;94175.28;5065195;28;20224;-52
2023/09/22 02:26:32;;;;;;;1999.90;999.90;;;;;;;17.54;100.00;94176.00;5065078;28;20193;-52
2023/09/22 02:28:57;;;;;;;1999.90;999.90;;;;;;;17.58;100.00;94173.81;5064946;28;20198;-54
2023/09/22 02:31:23;;;;;;;1999.90;999.90;;;;;;;17.61;100.00;94167.34;5065074;28;20190;-51
2023/09/22 02:33:49;;;;;;;1999.90;999.90;;;;;;;17.56;100.00;94170.78;5064995;28;20173;-52
2023/09/22 02:36:16;;;;;;;1999.90;999.90;;;;;;;17.45;100.00;94165.09;5064902;28;20162;-51
2023/09/22 02:38:42;;;;;;;1999.90;999.90;;;;;;;17.45;100.00;94160.31;5064829;28;20170;-52
2023/09/22 02:41:08;;;;;;;1999.90;999.90;;;;;;;17.38;100.00;94151.63;5065333;28;20169;-47
2023/09/22 02:43:34;;;;;;;1999.90;999.90;;;;;;;17.40;100.00;94157.44;5064528;28;20173;-48
2023/09/22 02:46:03;;;;;;;1999.90;999.90;;;;;;;17.36;100.00;94162.38;5065281;28;20173;-48
2023/09/22 02:48:28;;;;;;;1999.90;999.90;;;;;;;17.29;100.00;94162.75;5064540;28;20213;-49
2023/09/22 02:50:54;;;;;;;1999.90;999.90;;;;;;;17.29;100.00;94165.53;5065024;28;20162;-47
2023/09/22 02:53:19;;;;;;;1999.90;999.90;;;;;;;17.23;100.00;94165.44;5064486;28;20193;-48
2023/09/22 02:55:44;;;;;;;1999.90;999.90;;;;;;;17.19;100.00;94158.59;5064905;28;20158;-48
2023/09/22 02:58:10;;;;;;;1999.90;999.90;;;;;;;17.16;100.00;94162.28;5065145;28;20186;-50
2023/09/22 03:00:35;;;;;;;1999.90;999.90;;;;;;;17.16;100.00;94154.78;5064440;28;20166;-50
2023/09/22 03:03:01;;;;;;;1999.90;999.90;;;;;;;17.14;100.00;94150.97;5064362;28;20184;-47
2023/09/22 03:05:26;;;;;;;1999.90;999.90;;;;;;;17.15;100.00;94158.03;5064527;28;20210;-49
2023/09/22 03:07:52;;;;;;;1999.90;999.90;;;;;;;17.15;100.00;94163.53;5064758;28;20193;-47
2023/09/22 03:10:18;;;;;;;1999.90;999.90;;;;;;;17.10;100.00;94166.94;5064910;28;20471;-50
2023/09/22 03:12:44;;;;;;;1999.90;999.90;;;;;;;17.02;100.00;94161.06;5064521;28;20189;-49
2023/09/22 03:15:09;;;;;;;1999.90;999.90;;;;;;;16.97;100.00;94147.16;5064740;28;20165;-50
2023/09/22 03:17:38;;;;;;;1999.90;999.90;;;;;;;16.89;100.00;94151.53;5064207;28;20181;-48
2023/09/22 03:20:12;;;;;;;1999.90;999.90;;;;;;;16.92;100.00;94128.50;5064357;28;20165;-47
2023/09/22 03:22:38;;;;;;;1999.90;999.90;;;;;;;16.89;100.00;94121.94;5064561;28;20229;-48
2023/09/22 03:25:08;;;;;;;1999.90;999.90;;;;;;;16.86;100.00;94138.69;5064363;28;20158;-48
2023/09/22 03:27:34;;;;;;;1999.90;999.90;;;;;;;16.76;100.00;94131.72;5063864;28;20216;-48
2023/09/22 03:30:01;;;;;;;1999.90;999.90;;;;;;;16.76;100.00;94140.00;5063960;28;20172;-49
2023/09/22 03:32:27;;;;;;;1999.90;999.90;;;;;;;16.72;100.00;94142.19;5064172;28;20166;-51
2023/09/22 03:34:53;;;;;;;1999.90;999.90;;;;;;;16.63;100.00;94145.78;5064466;28;20314;-48
2023/09/22 03:37:18;;;;;;;1999.90;999.90;;;;;;;16.60;100.00;94140.47;5063856;28;20191;-48
2023/09/22 03:39:44;;;;;;;1999.90;999.90;;;;;;;16.58;100.00;94137.41;5063812;28;20184;-51
2023/09/22 03:42:09;;;;;;;1999.90;999.90;;;;;;;16.56;100.00;94140.63;5064307;28;20162;-49
2023/09/22 03:44:34;;;;;;;1999.90;999.90;;;;;;;16.51;100.00;94133.03;5064050;28;20162;-50
2023/09/22 03:47:00;;;;;;;1999.90;999.90;;;;;;;16.36;100.00;94127.44;5064452;28;20188;-48
2023/09/22 03:49:26;;;;;;;1999.90;999.90;;;;;;;16.31;100.00;94125.34;5064250;28;20162;-47
2023/09/22 03:51:51;;;;;;;1999.90;999.90;;;;;;;16.30;100.00;94123.81;5064209;28;20166;-50
2023/09/22 03:54:16;;;;;;;1999.90;999.90;;;;;;;16.22;100.00;94128.13;5063658;28;20170;-50
2023/09/22 03:56:42;;;;;;;1999.90;999.90;;;;;;;16.16;100.00;94129.25;5063512;28;20162;-50
2023/09/22 03:59:07;;;;;;;1999.90;999.90;;;;;;;16.08;100.00;94117.84;5063647;28;20162;-51
2023/09/22 04:01:33;;;;;;;1999.90;999.90;;;;;;;16.03;100.00;94110.22;5063859;28;20185;-53
2023/09/22 04:03:59;;;;;;;1999.90;999.90;;;;;;;15.99;100.00;94103.38;5063365;28;20216;-50
2023/09/22 04:06:24;;;;;;;1999.90;999.90;;;;;;;15.87;100.00;94080.34;5064091;28;20162;-50
2023/09/22 04:08:51;;;;;;;1999.90;999.90;;;;;;;15.84;100.00;94067.53;5063563;28;20190;-51
2023/09/22 04:11:16;;;;;;;1999.90;999.90;;;;;;;15.73;100.00;94059.03;5064093;28;20166;-49
2023/09/22 04:13:42;;;;;;;1999.90;999.90;;;;;;;15.70;100.00;94042.69;5063530;28;20197;-51
2023/09/22 04:16:07;;;;;;;1999.90;999.90;;;;;;;15.64;100.00;94026.06;5063414;28;20166;-51
2023/09/22 04:18:32;;;;;;;1999.90;999.90;;;;;;;15.63;100.00;94015.53;5063489;28;20497;-51
2023/09/22 04:21:01;;;;;;;1999.90;999.90;;;;;;;15.54;100.00;94008.09;5063995;28;20166;-50
2023/09/22 04:23:27;;;;;;;1999.90;999.90;;;;;;;15.47;100.00;93980.91;5063856;28;20237;-49
2023/09/22 04:25:54;;;;;;;1999.90;999.90;;;;;;;15.46;100.00;93962.91;5066704;28;20162;-53
2023/09/22 04:28:23;;;;;;;1999.90;999.90;;;;;;;15.41;100.00;93955.28;5067281;28;20204;-51
2023/09/22 04:30:49;;;;;;;1999.90;999.90;;;;;;;15.39;100.00;93926.72;5066927;28;20165;-50
2023/09/22 04:33:15;;;;;;;1999.90;999.90;;;;;;;15.32;100.00;93914.06;5067750;28;20200;-50
2023/09/22 04:35:40;;;;;;;1999.90;999.90;;;;;;;15.25;100.00;93892.41;5067225;28;20161;-53
2023/09/22 04:38:05;;;;;;;1999.90;999.90;;;;;;;15.21;100.00;93875.31;5067162;28;20189;-53
2023/09/22 04:40:38;;;;;;;1999.90;999.90;;;;;;;15.19;100.00;93855.75;5067567;28;20196;-53
2023/09/22 04:43:12;;;;;;;1999.90;999.90;;;;;;;15.15;100.00;93837.94;5067027;28;20463;-54
2023/09/22 04:45:42;;;;;;;1999.90;999.90;;;;;;;15.13;100.00;93808.16;5067486;28;20154;-54
2023/09/22 04:48:08;;;;;;;1999.90;999.90;;;;;;;15.12;100.00;93781.88;5066786;28;20265;-51
2023/09/22 04:50:33;;;;;;;1999.90;999.90;;;;;;;15.07;100.00;93755.03;5066894;28;20170;-49
2023/09/22 04:53:00;;;;;;;1999.90;999.90;;;;;;;15.04;100.00;93728.50;5066861;28;20242;-53
2023/09/22 04:55:26;;;;;;;1999.90;999.90;;;;;;;15.01;100.00;93706.69;5066803;28;20169;-49
2023/09/22 04:57:51;;;;;;;1999.90;999.90;;;;;;;14.98;100.00;93686.41;5067208;28;20212;-50
2023/09/22 05:00:17;;;;;;;1999.90;999.90;;;;;;;15.00;100.00;93658.41;5066884;28;20166;-52
2023/09/22 05:02:43;;;;;;;1999.90;999.90;;;;;;;14.96;100.00;93644.88;5066704;28;20256;-54
2023/09/22 05:05:10;;;;;;;1999.90;999.90;;;;;;;14.93;100.00;93629.31;5066651;28;20240;-52
2023/09/22 05:07:36;;;;;;;1999.90;999.90;;;;;;;14.94;100.00;93614.34;5066945;28;20262;-50
2023/09/22 05:10:02;;;;;;;1999.90;999.90;;;;;;;14.89;100.00;93601.25;5066908;28;20173;-54
2023/09/22 05:12:27;;;;;;;1999.90;999.90;;;;;;;14.86;100.00;93569.22;5067297;28;20177;-55
2023/09/22 05:14:55;;;;;;;1999.90;999.90;;;;;;;14.88;100.00;93560.50;5066413;28;20169;-57
2023/09/22 05:17:20;;;;;;;1999.90;999.90;;;;;;;14.88;100.00;93539.28;5066712;28;20241;-57
2023/09/22 05:19:46;;;;;;;1999.90;999.90;;;;;;;14.88;100.00;93517.31;5067056;28;20173;-55
2023/09/22 05:22:11;;;;;;;1999.90;999.90;;;;;;;14.87;100.00;93493.81;5065920;28;20188;-52
2023/09/22 05:24:36;;;;;;;1999.90;999.90;;;;;;;14.84;100.00;93472.78;5066158;28;20181;-54
2023/09/22 05:27:04;;;;;;;1999.90;999.90;;;;;;;14.85;100.00;93457.78;5066452;28;20198;-57
2023/09/22 05:29:29;;;;;;;1999.90;999.90;;;;;;;14.82;100.00;93453.25;5066072;28;20303;-55
2023/09/22 05:31:55;;;;;;;1999.90;999.90;;;;;;;14.84;100.00;93439.78;5066310;28;20166;-57
2023/09/22 05:34:20;;;;;;;1999.90;999.90;;;;;;;14.81;100.00;93429.75;5066705;28;20177;-55
2023/09/22 05:36:46;;;;;;;1999.90;999.90;;;;;;;14.78;100.00;93419.69;5065879;28;20205;-51
2023/09/22 05:39:12;;;;;;;1999.90;999.90;;;;;;;14.82;100.00;93403.03;5066665;28;20170;-54
2023/09/22 05:41:37;;;;;;;1999.90;999.90;;;;;;;14.79;100.00;93393.72;5066145;28;20165;-53
2023/09/22 05:44:04;;;;;;;1999.90;999.90;;;;;;;14.74;100.00;93383.44;5065859;28;20272;-54
2023/09/22 05:46:31;;;;;;;1999.90;999.90;;;;;;;14.78;100.00;93381.22;5065709;28;20166;-52
2023/09/22 05:48:57;;;;;;;1999.90;999.90;;;;;;;14.77;100.00;93368.72;5065429;28;20398;-52
2023/09/22 05:51:23;;;;;;;1999.90;999.90;;;;;;;14.82;100.00;93359.78;5066183;28;20197;-51
2023/09/22 05:53:51;;;;;;;1999.90;999.90;;;;;;;14.83;100.00;93355.81;5065568;28;20208;-51
2023/09/22 05:56:16;;;;;;;1999.90;999.90;;;;;;;14.85;100.00;93358.84;5065480;28;20166;-50
2023/09/22 05:58:42;;;;;;;1999.90;999.90;;;;;;;14.78;100.00;93364.75;5065424;28;20288;-50
2023/09/22 06:01:11;;;;;;;1999.90;999.90;;;;;;;14.78;100.00;93375.72;5065482;28;20170;-52
2023/09/22 06:03:38;;;;;;;1999.90;999.90;;;;;;;14.72;100.00;93372.16;5065286;28;20186;-50
2023/09/22 06:06:13;;;;;;;1999.90;999.90;;;;;;;14.70;100.00;93366.38;5065941;28;20170;-52
2023/09/22 06:08:41;;;;;;;1999.90;999.90;;;;;;;14.72;100.00;93366.66;5065225;28;20205;-53
2023/09/22 06:11:08;;;;;;;1999.90;999.90;;;;;;;14.77;100.00;93352.25;5065174;28;20165;-52
2023/09/22 06:13:34;;;;;;;1999.90;999.90;;;;;;;14.76;100.00;93350.75;5065713;28;20470;-50
2023/09/22 06:16:00;;;;;;;1999.90;999.90;;;;;;;14.73;100.00;93350.94;5065621;28;20194;-49
2023/09/22 06:18:25;;;;;;;1999.90;999.90;;;;;;;14.68;100.00;93355.09;5065219;28;20170;-49
2023/09/22 06:20:58;;;;;;;1999.90;999.90;;;;;;;14.71;100.00;93348.66;5064845;28;20173;-50
2023/09/22 06:23:24;;;;;;;1999.90;999.90;;;;;;;14.69;100.00;93344.88;5065809;28;20165;-52
2023/09/22 06:25:56;;;;;;;1999.90;999.90;;;;;;;14.69;100.00;93347.63;5065352;28;20169;-50
2023/09/22 06:28:22;;;;;;;1999.90;999.90;;;;;;;14.67;100.00;93353.59;5064578;28;20194;-51
2023/09/22 06:30:48;;;;;;;1999.90;999.90;;;;;;;14.67;100.00;93350.84;5065130;28;20197;-53
2023/09/22 06:33:16;;;;;;;1999.90;999.90;;;;;;;14.62;100.00;93357.03;5064863;28;20169;-50
2023/09/22 06:35:43;;;;;;;1999.90;999.90;;;;;;;14.71;100.00;93348.66;5064895;28;20177;-49
2023/09/22 06:38:08;;;;;;;1999.90;999.90;;;;;;;14.72;100.00;93352.91;5064748;28;20176;-53
2023/09/22 06:40:37;;;;;;;1999.90;999.90;;;;;;;14.68;100.00;93349.63;5064817;28;20205;-53
2023/09/22 06:43:07;;;;;;;1999.90;999.90;;;;;;;14.68;100.00;93349.63;5065049;28;20253;-50
2023/09/22 06:45:35;;;;;;;1999.90;999.90;;;;;;;14.69;100.00;93348.41;5065224;28;20447;-49
2023/09/22 06:48:03;;;;;;;1999.90;999.90;;;;;;;14.74;100.00;93347.72;5064161;28;20201;-55
2023/09/22 06:50:29;;;;;;;1999.90;999.90;;;;;;;14.74;100.00;93336.72;5064582;28;20173;-55
2023/09/22 06:52:54;;;;;;;1999.90;999.90;;;;;;;14.70;100.00;93346.38;5064552;28;20248;-54
2023/09/22 06:55:20;;;;;;;1999.90;999.90;;;;;;;14.67;100.00;93342.63;5065020;28;20182;-53
2023/09/22 06:57:45;;;;;;;1999.90;999.90;;;;;;;14.64;100.00;93337.34;5064452;28;20190;-51
2023/09/22 07:00:23;;;;;;;1999.90;999.90;;;;;;;14.63;100.00;93342.06;5064638;28;20177;-52
2023/09/22 07:02:49;;;;;;;1999.90;999.90;;;;;;;14.57;100.00;93349.47;5064945;28;20189;-52
2023/09/22 07:05:19;;;;;;;1999.90;999.90;;;;;;;14.52;100.00;93358.38;5063961;28;20228;-52
2023/09/22 07:07:45;;;;;;;1999.90;999.90;;;;;;;14.52;100.00;93352.91;5064668;28;20217;-53
2023/09/22 07:10:10;;;;;;;1999.90;999.90;;;;;;;14.58;100.00;93353.75;5064712;28;20216;-51
2023/09/22 07:12:39;;;;;;;1999.90;999.90;;;;;;;14.58;100.00;93358.47;5064130;28;20182;-51
2023/09/22 07:15:06;;;;;;;1999.90;999.90;;;;;;;14.55;100.00;93368.44;5064103;28;20174;-53
2023/09/22 07:17:32;;;;;;;1999.90;999.90;;;;;;;14.52;100.00;93363.88;5064637;28;20174;-52
2023/09/22 07:19:58;;;;;;;1999.90;999.90;;;;;;;14.46;100.00;93357.53;5064517;28;20181;-54
2023/09/22 07:22:23;;;;;;;1999.90;999.90;;;;;;;14.48;100.00;93352.34;5064422;28;20249;-55
2023/09/22 07:24:52;;;;;;;1999.90;999.90;;;;;;;14.49;100.00;93353.09;5064589;28;20174;-52
2023/09/22 07:27:18;;;;;;;1999.90;999.90;;;;;;;14.50;100.00;93349.84;5064542;28;20227;-53
2023/09/22 07:29:43;;;;;;;1999.90;999.90;;;;;;;14.47;100.00;93350.84;5064414;28;20201;-55
2023/09/22 07:32:09;;;;;;;1999.90;999.90;;;;;;;14.59;100.00;93351.72;5063864;28;20174;-54
2023/09/22 07:34:34;;;;;;;1999.90;999.90;;;;;;;14.65;100.00;93342.34;5063604;28;20178;-52
2023/09/22 07:37:00;;;;;;;1999.90;999.90;;;;;;;14.73;100.00;93346.19;5063785;28;20173;-53
2023/09/22 07:39:25;;;;;;;1999.90;999.90;;;;;;;14.87;100.00;93339.91;5064304;28;20177;-53
2023/09/22 07:41:50;;;;;;;1999.90;999.90;;;;;;;14.95;100.00;93351.22;5064123;28;20185;-54
2023/09/22 07:44:21;;;;;;;1999.90;999.90;;;;;;;14.90;100.00;93349.91;5063744;28;20180;-53
2023/09/22 07:46:47;;;;;;;1999.90;999.90;;;;;;;14.88;100.00;93357.88;5063922;28;20185;-52
2023/09/22 07:49:12;;;;;;;1999.90;999.90;;;;;;;14.95;100.00;93349.25;5064221;28;20174;-54
2023/09/22 07:51:38;;;;;;;1999.90;999.90;;;;;;;14.88;100.00;93360.63;5063615;28;20170;-51
2023/09/22 07:54:03;;;;;;;1999.90;999.90;;;;;;;14.87;100.00;93361.13;5064198;28;20471;-49
2023/09/22 07:56:30;;;;;;;1999.90;999.90;;;;;;;14.74;100.00;93379.91;5063646;28;20201;-49
2023/09/22 07:58:57;;;;;;;1999.90;999.90;;;;;;;14.70;100.00;93380.13;5063340;28;20193;-50
2023/09/22 08:01:24;;;;;;;1999.90;999.90;;;;;;;14.65;100.00;93361.59;5067484;28;20346;-53
2023/09/22 08:03:49;;;;;;;1999.90;999.90;;;;;;;14.67;100.00;93369.31;5067940;28;20232;-51
2023/09/22 08:06:15;;;;;;;1999.90;999.90;;;;;;;14.71;100.00;93354.16;5068403;28;20166;-49
2023/09/22 08:08:40;;;;;;;1999.90;999.90;;;;;;;14.72;100.00;93355.66;5067256;28;20273;-48
2023/09/22 08:11:05;;;;;;;1999.90;999.90;;;;;;;14.77;100.00;93356.97;5067593;28;20173;-50
2023/09/22 08:13:33;;;;;;;1999.90;999.90;;;;;;;14.84;100.00;93354.59;5067624;28;20212;-48
2023/09/22 08:15:59;;;;;;;1999.90;999.90;;;;;;;14.88;100.00;93357.88;5068002;28;20176;-49
2023/09/22 08:18:25;;;;;;;1999.90;999.90;;;;;;;15.03;100.00;93355.81;5067429;28;20276;-48
2023/09/22 08:20:50;;;;;;;1999.90;999.90;;;;;;;15.06;100.00;93348.59;5067410;28;20178;-50
2023/09/22 08:23:16;;;;;;;1999.90;999.90;;;;;;;15.14;100.00;93342.22;5067383;28;20190;-48
2023/09/22 08:25:43;;;;;;;1999.90;999.90;;;;;;;15.26;100.00;93338.34;5067416;28;20240;-48
2023/09/22 08:28:12;;;;;;;1999.90;999.90;;;;;;;15.17;100.00;93341.25;5067574;28;20248;-52
2023/09/22 08:30:39;;;;;;;1999.90;999.90;;;;;;;15.16;100.00;93333.50;5067253;28;20205;-50
2023/09/22 08:33:05;;;;;;;1999.90;999.90;;;;;;;15.23;100.00;93333.06;5067663;28;20237;-52
2023/09/22 08:35:30;;;;;;;1999.90;999.90;;;;;;;15.26;100.00;93332.84;5067118;28;20481;-49
2023/09/22 08:37:55;;;;;;;1999.90;999.90;;;;;;;15.24;100.00;93335.34;5066977;28;20173;-50
2023/09/22 08:40:21;;;;;;;1999.90;999.90;;;;;;;15.26;100.00;93349.34;5067870;28;20174;-49
2023/09/22 08:42:48;;;;;;;1999.90;999.90;;;;;;;15.31;100.00;93345.16;5067099;28;20169;-50
2023/09/22 08:45:13;;;;;;;1999.90;999.90;;;;;;;15.28;100.00;93346.88;5067603;28;20193;-47
2023/09/22 08:47:40;;;;;;;1999.90;999.90;;;;;;;15.27;100.00;93359.09;5067133;28;20272;-47
2023/09/22 08:50:08;;;;;;;1999.90;999.90;;;;;;;15.27;100.00;93364.59;5066987;28;20185;-52
2023/09/22 08:52:33;;;;;;;1999.90;999.90;;;;;;;15.27;100.00;93367.34;5066769;28;20181;-50
2023/09/22 08:55:01;;;;;;;1999.90;999.90;;;;;;;15.25;100.00;93386.34;5066878;28;20170;-47
2023/09/22 08:57:29;;;;;;;1999.90;999.90;;;;;;;15.13;100.00;93392.19;5066675;28;20186;-49
2023/09/22 08:59:56;;;;;;;1999.90;999.90;;;;;;;15.09;100.00;93388.88;5067318;28;20177;-47
2023/09/22 09:02:22;;;;;;;1999.90;999.90;;;;;;;15.13;100.00;93390.19;5066633;28;20177;-48
2023/09/22 09:04:47;;;;;;;1999.90;999.90;;;;;;;15.13;100.00;93395.69;5066441;28;20214;-48
2023/09/22 09:07:16;;;;;;;1999.90;999.90;;;;;;;15.21;100.00;93399.56;5067356;28;20193;-50
2023/09/22 09:09:47;;;;;;;1999.90;999.90;;;;;;;15.17;100.00;93399.00;5067136;28;20170;-51
2023/09/22 09:12:14;;;;;;;1999.90;999.90;;;;;;;15.22;100.00;93392.81;5066832;28;20227;-49
2023/09/22 09:14:41;;;;;;;1999.90;999.90;;;;;;;15.27;100.00;93388.63;5066868;28;20178;-51
2023/09/22 09:17:21;;;;;;;1999.90;999.90;;;;;;;15.29;100.00;93392.41;5066819;28;20211;-54
2023/09/22 09:19:54;;;;;;;1999.90;999.90;;;;;;;15.28;100.00;93399.13;5067173;28;20176;-54
2023/09/22 09:22:20;;;;;;;1999.90;999.90;;;;;;;15.13;100.00;93412.19;5067169;28;20166;-52
2023/09/22 09:24:45;;;;;;;1999.90;999.90;;;;;;;15.13;100.00;93406.69;5066320;28;20174;-52
2023/09/22 09:27:17;;;;;;;1999.90;999.90;;;;;;;15.20;100.00;93406.28;5066106;28;20217;-51
2023/09/22 09:29:44;;;;;;;1999.90;999.90;;;;;;;15.33;100.00;93403.94;5066225;28;20459;-49
2023/09/22 09:32:09;;;;;;;1999.90;999.90;;;;;;;15.31;100.00;93403.69;5066593;28;20167;-47
2023/09/22 09:34:40;;;;;;;1999.90;999.90;;;;;;;15.34;100.00;93390.94;5066693;28;20228;-51
2023/09/22 09:37:13;;;;;;;1999.90;999.90;;;;;;;15.33;100.00;93392.94;5066032;28;20161;-52
2023/09/22 09:39:47;;;;;;;1999.90;999.90;;;;;;;15.27;100.00;93392.09;5065849;28;20193;-54
2023/09/22 09:42:18;;;;;;;1999.90;999.90;;;;;;;15.22;100.00;93397.53;5066400;28;20189;-49
2023/09/22 09:45:04;;;;;;;1999.90;999.90;;;;;;;15.33;100.00;93392.16;5066496;28;20177;-50
2023/09/22 09:47:34;;;;;;;1999.90;999.90;;;;;;;15.25;100.00;93394.59;5064808;28;20210;-51
2023/09/22 09:50:00;;;;;;;1999.90;999.90;;;;;;;15.18;100.00;93399.75;5065815;28;20165;-49
2023/09/22 09:52:37;;;;;;;1999.90;999.90;;;;;;;15.06;100.00;93401.59;5066292;28;20176;-49
2023/09/22 09:55:08;;;;;;;1999.90;999.90;;;;;;;15.07;100.00;93405.09;5066281;28;20166;-53
2023/09/22 09:57:40;;;;;;;1999.90;999.90;;;;;;;14.97;100.00;93414.72;5066040;28;20209;-53
2023/09/22 10:00:14;;;;;;;1999.90;999.90;;;;;;;14.88;100.00;93423.84;5066162;28;20166;-47
2023/09/22 10:02:44;;;;;;;1999.90;999.90;;;;;;;14.83;100.00;93427.25;5065743;28;20166;-48
2023/09/22 10:05:21;;;;;;;1999.90;999.90;;;;;;;14.72;100.00;93443.59;5065380;28;20209;-49
2023/09/22 10:07:48;;;;;;;1999.90;999.90;;;;;;;14.65;100.00;93455.00;5066134;28;20189;-49
2023/09/22 10:10:15;;;;;;;1999.90;999.90;;;;;;;14.68;100.00;93453.28;5065407;28;20233;-51
2023/09/22 10:12:43;;;;;;;1999.90;999.90;;;;;;;14.62;100.00;93466.94;5065538;28;20233;-48
2023/09/22 10:15:09;;;;;;;1999.90;999.90;;;;;;;14.76;100.00;93444.16;5066045;28;20166;-48
2023/09/22 10:17:35;;;;;;;1999.90;999.90;;;;;;;14.68;100.00;93454.03;5064972;28;20172;-51
2023/09/22 10:20:06;;;;;;;1999.90;999.90;;;;;;;14.81;100.00;93446.22;5065197;28;20172;-52
2023/09/22 10:22:34;;;;;;;1999.90;999.90;;;;;;;14.84;100.00;93442.53;5064155;28;20245;-48
2023/09/22 10:25:12;;;;;;;1999.90;999.90;;;;;;;14.73;100.00;93447.09;5065647;28;20378;-50
2023/09/22 10:27:50;;;;;;;1999.90;999.90;;;;;;;14.70;100.00;93446.06;5065529;28;20202;-50
2023/09/22 10:30:16;;;;;;;1999.90;999.90;;;;;;;14.78;100.00;93438.94;5065256;28;20193;-49
2023/09/22 10:32:42;;;;;;;1999.90;999.90;;;;;;;14.76;100.00;93455.16;5064754;28;20177;-50
2023/09/22 10:35:10;;;;;;;1999.90;999.90;;;;;;;14.84;100.00;93450.78;5064947;28;20166;-48
2023/09/22 10:37:37;;;;;;;1999.90;999.90;;;;;;;14.71;100.00;93464.06;5064889;28;20242;-51
2023/09/22 10:40:16;;;;;;;1999.90;999.90;;;;;;;14.67;100.00;93463.50;5065399;28;20247;-50
2023/09/22 10:42:46;;;;;;;1999.90;999.90;;;;;;;14.79;100.00;93467.19;5065194;28;20165;-49
2023/09/22 10:45:13;;;;;;;1999.90;999.90;;;;;;;14.83;100.00;93470.50;5064725;28;20239;-51
2023/09/22 10:47:41;;;;;;;1999.90;999.90;;;;;;;14.50;100.00;93498.19;5065015;28;20201;-47